Time;durP1;ratioP1;P1;durP2;ratioP2;P2;SDS_P1;SDS_P2;PMS_P1;PMS_P2;Temp;Humidity;BMP_temperature;BMP_pressure;BME280_temperature;BME280_humidity;BME280_pressure;Samples;Min_cycle;Max_cycle;Signal;HPM_P1;HPM_P2
2022/01/01 00:00:19;;;;;;;21.42;12.55;;;;;;;;;;5033857;28;20025;-63
2022/01/01 00:02:45;;;;;;;13.52;7.85;;;;;;;;;;5016235;28;20503;-64
2022/01/01 00:05:13;;;;;;;12.63;7.43;;;;;;;;;;5034229;28;20034;-66
2022/01/01 00:07:39;;;;;;;12.10;6.65;;;;;;;;;;5034055;28;20025;-60
2022/01/01 00:10:06;;;;;;;17.73;7.63;;;;;;;;;;5034035;28;20540;-66
2022/01/01 00:12:32;;;;;;;12.20;6.10;;;;;;;;;;5033688;28;20467;-65
2022/01/01 00:14:57;;;;;;;8.55;4.35;;;;;;;;;;5033655;28;20025;-65
2022/01/01 00:17:23;;;;;;;10.45;5.13;;;;;;;;;;5033777;28;20132;-62
2022/01/01 00:19:48;;;;;;;11.63;5.03;;;;;;;;;;5033917;28;20079;-62
2022/01/01 00:22:14;;;;;;;9.13;4.50;;;;;;;;;;5033636;28;20037;-62
2022/01/01 00:24:39;;;;;;;11.38;5.03;;;;;;;;;;5033652;28;20097;-65
2022/01/01 00:27:05;;;;;;;6.60;3.67;;;;;;;;;;5033488;28;20021;-62
2022/01/01 00:29:30;;;;;;;9.48;3.65;;;;;;;;;;5033528;28;20072;-61
2022/01/01 00:31:55;;;;;;;6.38;2.97;;;;;;;;;;5033357;28;20045;-61
2022/01/01 00:34:21;;;;;;;7.57;4.07;;;;;;;;;;5033590;28;20065;-65
2022/01/01 00:36:46;;;;;;;8.85;4.20;;;;;;;;;;5033303;28;20041;-66
2022/01/01 00:39:12;;;;;;;14.68;4.65;;;;;;;;;;5033600;28;20037;-66
2022/01/01 00:41:37;;;;;;;12.32;4.55;;;;;;;;;;5033287;28;20041;-64
2022/01/01 00:44:04;;;;;;;11.48;4.10;;;;;;;;;;5033315;28;20532;-62
2022/01/01 00:46:29;;;;;;;8.57;4.00;;;;;;;;;;5032996;28;20025;-61
2022/01/01 00:48:55;;;;;;;8.68;3.85;;;;;;;;;;5033312;28;20083;-63
2022/01/01 00:51:20;;;;;;;10.27;3.60;;;;;;;;;;5032925;28;20399;-63
2022/01/01 00:53:46;;;;;;;6.78;3.40;;;;;;;;;;5033326;28;20029;-64
2022/01/01 00:56:12;;;;;;;9.52;3.55;;;;;;;;;;5015681;28;20025;-59
2022/01/01 00:58:37;;;;;;;5.22;2.65;;;;;;;;;;5032819;28;20535;-66
2022/01/01 01:01:03;;;;;;;6.97;3.28;;;;;;;;;;5033065;28;20302;-66
2022/01/01 01:03:28;;;;;;;7.88;2.90;;;;;;;;;;5033028;28;20049;-57
2022/01/01 01:05:54;;;;;;;5.32;2.85;;;;;;;;;;5032994;28;20045;-60
2022/01/01 01:08:19;;;;;;;15.32;3.90;;;;;;;;;;5019737;28;20032;-59
2022/01/01 01:10:46;;;;;;;12.80;4.07;;;;;;;;;;5032854;28;20074;-60
2022/01/01 01:13:15;;;;;;;9.82;3.75;;;;;;;;;;5032577;28;20030;-64
2022/01/01 01:15:40;;;;;;;9.27;3.72;;;;;;;;;;5033054;28;20025;-66
2022/01/01 01:18:06;;;;;;;8.75;3.97;;;;;;;;;;5032827;28;20421;-59
2022/01/01 01:20:32;;;;;;;8.10;3.78;;;;;;;;;;5032840;28;20025;-61
2022/01/01 01:22:58;;;;;;;9.85;4.53;;;;;;;;;;5032086;28;20034;-66
2022/01/01 01:25:28;;;;;;;13.52;4.70;;;;;;;;;;5032761;28;20030;-59
2022/01/01 01:27:54;;;;;;;12.10;4.35;;;;;;;;;;5032277;28;20025;-56
2022/01/01 01:30:20;;;;;;;10.10;4.35;;;;;;;;;;5032680;28;20048;-59
2022/01/01 01:32:46;;;;;;;7.45;4.10;;;;;;;;;;5032296;28;20037;-62
2022/01/01 01:35:12;;;;;;;7.38;4.50;;;;;;;;;;5032825;28;20033;-65
2022/01/01 01:37:39;;;;;;;9.52;3.88;;;;;;;;;;5014734;28;20087;-66
2022/01/01 01:40:06;;;;;;;10.82;4.18;;;;;;;;;;5032481;28;20045;-59
2022/01/01 01:42:33;;;;;;;8.13;4.47;;;;;;;;;;5032092;28;20025;-64
2022/01/01 01:45:00;;;;;;;11.75;4.88;;;;;;;;;;5014828;28;20032;-60
2022/01/01 01:47:31;;;;;;;11.30;4.13;;;;;;;;;;5032142;28;20380;-59
2022/01/01 01:49:57;;;;;;;;;;;;;;;;;;5015080;28;20038;-60
2022/01/01 01:52:23;;;;;;;10.45;4.45;;;;;;;;;;5032498;28;20371;-63
2022/01/01 01:54:50;;;;;;;11.45;5.45;;;;;;;;;;5032328;28;20108;-66
2022/01/01 01:57:15;;;;;;;10.07;4.85;;;;;;;;;;5032042;28;20053;-61
2022/01/01 01:59:41;;;;;;;11.32;4.53;;;;;;;;;;5032497;28;20065;-59
2022/01/01 02:02:08;;;;;;;10.23;4.80;;;;;;;;;;5032155;28;20030;-64
2022/01/01 02:04:33;;;;;;;10.65;4.60;;;;;;;;;;5032194;28;20100;-57
2022/01/01 02:06:59;;;;;;;10.25;5.20;;;;;;;;;;5032134;28;20121;-61
2022/01/01 02:09:25;;;;;;;10.93;5.07;;;;;;;;;;5032373;28;20065;-59
2022/01/01 02:11:52;;;;;;;7.68;4.78;;;;;;;;;;5031884;28;20514;-62
2022/01/01 02:14:36;;;;;;;9.65;4.50;;;;;;;;;;5032335;28;20029;-63
2022/01/01 02:19:28;;;;;;;10.23;5.05;;;;;;;;;;5032213;28;20045;-66
2022/01/01 02:21:57;;;;;;;6.88;3.83;;;;;;;;;;5032101;28;20366;-63
2022/01/01 02:24:24;;;;;;;11.15;4.25;;;;;;;;;;5031892;28;20085;-64
2022/01/01 02:26:49;;;;;;;7.88;4.35;;;;;;;;;;5032174;28;20029;-66
2022/01/01 02:29:15;;;;;;;8.15;3.88;;;;;;;;;;5032096;28;20033;-67
2022/01/01 02:31:40;;;;;;;9.88;3.75;;;;;;;;;;5032017;28;20480;-64
2022/01/01 02:34:08;;;;;;;5.95;3.85;;;;;;;;;;5032886;28;20072;-66
2022/01/01 02:36:36;;;;;;;6.93;3.45;;;;;;;;;;5035908;28;20037;-67
2022/01/01 02:39:10;;;;;;;7.45;3.60;;;;;;;;;;5035259;28;20423;-66
2022/01/01 02:41:35;;;;;;;10.02;3.30;;;;;;;;;;5017959;28;20116;-66
2022/01/01 02:44:01;;;;;;;6.88;3.35;;;;;;;;;;5035361;28;20552;-66
2022/01/01 02:46:27;;;;;;;10.20;3.67;;;;;;;;;;5033051;28;20124;-65
2022/01/01 02:48:52;;;;;;;7.65;3.67;;;;;;;;;;5035702;28;20022;-67
2022/01/01 02:51:17;;;;;;;6.32;3.28;;;;;;;;;;5035345;28;20036;-66
2022/01/01 02:53:43;;;;;;;6.50;3.05;;;;;;;;;;5035331;28;20025;-64
2022/01/01 02:56:09;;;;;;;5.70;2.90;;;;;;;;;;5035465;28;20111;-66
2022/01/01 02:58:34;;;;;;;5.78;2.55;;;;;;;;;;5035501;28;20017;-67
2022/01/01 03:01:00;;;;;;;4.78;2.47;;;;;;;;;;5035093;28;20025;-66
2022/01/01 03:03:25;;;;;;;7.68;3.55;;;;;;;;;;5035037;28;20035;-66
2022/01/01 03:05:50;;;;;;;6.95;3.40;;;;;;;;;;5035205;28;20080;-66
2022/01/01 03:08:16;;;;;;;5.65;3.38;;;;;;;;;;5035073;28;20151;-66
2022/01/01 03:10:41;;;;;;;5.15;2.65;;;;;;;;;;5034922;28;20022;-66
2022/01/01 03:13:07;;;;;;;12.38;3.40;;;;;;;;;;5034895;28;20033;-64
2022/01/01 03:15:32;;;;;;;7.00;3.10;;;;;;;;;;5035060;28;20037;-66
2022/01/01 03:17:57;;;;;;;7.15;3.22;;;;;;;;;;5034997;28;20372;-66
2022/01/01 03:20:23;;;;;;;8.40;3.42;;;;;;;;;;5034910;28;20443;-67
2022/01/01 03:22:48;;;;;;;10.57;3.30;;;;;;;;;;5034638;28;20028;-67
2022/01/01 03:25:14;;;;;;;7.63;3.40;;;;;;;;;;5035013;28;20108;-67
2022/01/01 03:27:39;;;;;;;7.63;3.72;;;;;;;;;;5034931;28;20013;-66
2022/01/01 03:30:05;;;;;;;8.45;3.28;;;;;;;;;;5034503;28;20036;-67
2022/01/01 03:32:30;;;;;;;10.23;3.53;;;;;;;;;;5034639;28;20030;-66
2022/01/01 03:34:56;;;;;;;7.80;3.03;;;;;;;;;;5034821;28;20483;-67
2022/01/01 03:37:22;;;;;;;7.95;3.40;;;;;;;;;;5034225;28;20078;-66
2022/01/01 03:39:48;;;;;;;8.25;3.33;;;;;;;;;;5034786;28;20030;-65
2022/01/01 03:42:13;;;;;;;8.10;3.67;;;;;;;;;;5034238;28;20026;-66
2022/01/01 03:44:38;;;;;;;10.75;3.50;;;;;;;;;;5034647;28;20026;-66
2022/01/01 03:47:09;;;;;;;12.35;3.40;;;;;;;;;;5033942;28;20024;-62
2022/01/01 03:49:36;;;;;;;7.55;2.88;;;;;;;;;;5034297;28;20052;-66
2022/01/01 03:52:02;;;;;;;6.63;2.47;;;;;;;;;;5034174;28;20024;-65
2022/01/01 03:54:27;;;;;;;7.50;3.10;;;;;;;;;;5034225;28;20025;-66
2022/01/01 03:56:53;;;;;;;7.00;3.28;;;;;;;;;;5034143;28;20468;-66
2022/01/01 03:59:20;;;;;;;8.07;3.40;;;;;;;;;;5034274;28;20044;-67
2022/01/01 04:01:46;;;;;;;9.18;3.40;;;;;;;;;;5034140;28;20037;-67
2022/01/01 04:04:11;;;;;;;7.18;3.03;;;;;;;;;;5034254;28;20095;-66
2022/01/01 04:06:36;;;;;;;7.68;3.13;;;;;;;;;;5033548;28;20064;-65
2022/01/01 04:09:02;;;;;;;5.82;2.25;;;;;;;;;;5034108;28;20079;-62
2022/01/01 04:11:28;;;;;;;10.13;3.05;;;;;;;;;;5033876;28;20109;-60
2022/01/01 04:13:53;;;;;;;9.38;3.20;;;;;;;;;;5034184;28;20551;-63
2022/01/01 04:16:20;;;;;;;10.50;3.88;;;;;;;;;;5033828;28;20476;-62
2022/01/01 04:18:46;;;;;;;9.00;3.40;;;;;;;;;;5033845;28;20026;-56
2022/01/01 04:21:12;;;;;;;14.23;3.45;;;;;;;;;;5033543;28;20029;-63
2022/01/01 04:23:39;;;;;;;7.50;3.10;;;;;;;;;;5033919;28;20048;-58
2022/01/01 04:26:06;;;;;;;9.77;3.38;;;;;;;;;;5033742;28;20033;-61
2022/01/01 04:28:32;;;;;;;11.32;2.28;;;;;;;;;;5033638;28;20053;-60
2022/01/01 04:30:57;;;;;;;5.63;2.70;;;;;;;;;;5033350;28;20068;-59
2022/01/01 04:33:23;;;;;;;11.32;3.30;;;;;;;;;;5033336;28;20128;-64
2022/01/01 04:35:48;;;;;;;8.40;3.33;;;;;;;;;;5033287;28;20026;-65
2022/01/01 04:40:58;;;;;;;10.55;2.85;;;;;;;;;;5033586;28;20052;-58
2022/01/01 04:43:23;;;;;;;9.05;4.03;;;;;;;;;;5033170;28;20468;-59
2022/01/01 04:45:49;;;;;;;7.68;3.33;;;;;;;;;;5015699;28;20140;-60
2022/01/01 04:48:14;;;;;;;10.63;3.83;;;;;;;;;;5033162;28;20043;-62
2022/01/01 04:50:40;;;;;;;7.55;3.33;;;;;;;;;;5032779;28;20399;-61
2022/01/01 04:53:05;;;;;;;12.07;4.00;;;;;;;;;;5033366;28;20037;-57
2022/01/01 04:55:30;;;;;;;10.00;3.55;;;;;;;;;;5033072;28;20056;-56
2022/01/01 04:57:56;;;;;;;15.35;4.65;;;;;;;;;;5032454;28;20443;-59
2022/01/01 05:00:21;;;;;;;14.85;4.07;;;;;;;;;;5032959;28;20024;-53
2022/01/01 05:02:47;;;;;;;11.07;3.72;;;;;;;;;;5032985;28;20383;-66
2022/01/01 05:05:12;;;;;;;15.57;4.22;;;;;;;;;;5032736;28;20030;-66
2022/01/01 05:07:38;;;;;;;13.23;3.08;;;;;;;;;;5033016;28;20036;-65
2022/01/01 05:10:05;;;;;;;10.48;3.50;;;;;;;;;;5032547;28;20095;-66
2022/01/01 05:12:30;;;;;;;9.40;3.60;;;;;;;;;;5033142;28;20060;-66
2022/01/01 05:14:56;;;;;;;13.82;3.35;;;;;;;;;;5032584;28;20061;-64
2022/01/01 05:17:21;;;;;;;11.35;3.70;;;;;;;;;;5032741;28;20033;-64
2022/01/01 05:19:47;;;;;;;11.85;3.28;;;;;;;;;;5032482;28;20025;-58
2022/01/01 05:22:12;;;;;;;10.65;3.20;;;;;;;;;;5032876;28;20041;-59
2022/01/01 05:24:38;;;;;;;7.63;2.78;;;;;;;;;;5032694;28;20507;-66
2022/01/01 05:27:03;;;;;;;8.70;3.00;;;;;;;;;;5032855;28;20095;-65
2022/01/01 05:29:28;;;;;;;12.82;3.00;;;;;;;;;;5032796;28;20152;-63
2022/01/01 05:31:54;;;;;;;12.50;3.40;;;;;;;;;;5032336;28;20048;-65
2022/01/01 05:34:19;;;;;;;10.55;2.83;;;;;;;;;;5032378;28;20033;-66
2022/01/01 05:36:45;;;;;;;13.52;3.30;;;;;;;;;;5032622;28;20503;-64
2022/01/01 05:39:11;;;;;;;10.82;3.50;;;;;;;;;;5032328;28;20443;-66
2022/01/01 05:41:36;;;;;;;12.85;3.35;;;;;;;;;;5032531;28;20031;-66
2022/01/01 05:44:02;;;;;;;11.48;3.28;;;;;;;;;;5032351;28;20052;-62
2022/01/01 05:46:29;;;;;;;10.73;3.55;;;;;;;;;;5032552;28;20029;-65
2022/01/01 05:48:55;;;;;;;8.93;2.95;;;;;;;;;;5032055;28;20029;-65
2022/01/01 05:51:20;;;;;;;9.75;3.15;;;;;;;;;;5032215;28;20043;-65
2022/01/01 05:53:46;;;;;;;14.35;3.75;;;;;;;;;;5032437;28;20087;-66
2022/01/01 05:56:11;;;;;;;12.95;3.22;;;;;;;;;;5032328;28;20041;-64
2022/01/01 05:58:36;;;;;;;13.30;3.13;;;;;;;;;;5032263;28;20413;-64
2022/01/01 06:01:02;;;;;;;7.40;2.70;;;;;;;;;;5032422;28;20025;-65
2022/01/01 06:03:27;;;;;;;14.23;3.38;;;;;;;;;;5032005;28;20471;-64
2022/01/01 06:05:53;;;;;;;12.77;3.30;;;;;;;;;;5032619;28;20385;-60
2022/01/01 06:08:19;;;;;;;10.30;2.90;;;;;;;;;;5032263;28;20033;-59
2022/01/01 06:10:45;;;;;;;12.70;2.85;;;;;;;;;;5035988;28;20148;-62
2022/01/01 06:13:10;;;;;;;9.52;3.00;;;;;;;;;;5036409;28;20437;-57
2022/01/01 06:15:35;;;;;;;10.43;3.28;;;;;;;;;;5036252;28;20075;-60
2022/01/01 06:18:01;;;;;;;8.35;3.28;;;;;;;;;;5035968;28;20064;-60
2022/01/01 06:20:27;;;;;;;10.80;3.40;;;;;;;;;;5036211;28;20486;-59
2022/01/01 06:22:52;;;;;;;10.13;3.03;;;;;;;;;;5036122;28;20037;-60
2022/01/01 06:25:18;;;;;;;9.60;2.55;;;;;;;;;;5036203;28;20025;-60
2022/01/01 06:27:43;;;;;;;11.15;3.00;;;;;;;;;;5036159;28;20045;-63
2022/01/01 06:30:09;;;;;;;11.80;3.22;;;;;;;;;;5035585;28;20048;-65
2022/01/01 06:32:35;;;;;;;9.70;3.45;;;;;;;;;;5035561;28;20057;-64
2022/01/01 06:35:00;;;;;;;8.55;3.03;;;;;;;;;;5035768;28;20399;-65
2022/01/01 06:37:26;;;;;;;10.73;3.20;;;;;;;;;;5035825;28;20024;-63
2022/01/01 06:39:51;;;;;;;10.95;3.33;;;;;;;;;;5035515;28;20037;-57
2022/01/01 06:42:17;;;;;;;10.00;2.90;;;;;;;;;;5035712;28;20076;-64
2022/01/01 06:44:42;;;;;;;11.18;3.22;;;;;;;;;;5035549;28;20079;-65
2022/01/01 06:47:09;;;;;;;12.07;3.10;;;;;;;;;;5035548;28;20027;-60
2022/01/01 06:49:35;;;;;;;9.50;3.00;;;;;;;;;;5035105;28;20049;-63
2022/01/01 06:52:00;;;;;;;12.25;3.45;;;;;;;;;;5035501;28;20025;-65
2022/01/01 06:54:25;;;;;;;9.85;2.80;;;;;;;;;;5035476;28;20044;-60
2022/01/01 06:56:51;;;;;;;7.65;2.40;;;;;;;;;;5035453;28;20468;-64
2022/01/01 06:59:16;;;;;;;16.25;3.45;;;;;;;;;;5035252;28;20468;-56
2022/01/01 07:01:42;;;;;;;11.38;2.33;;;;;;;;;;5035117;28;20034;-58
2022/01/01 07:04:07;;;;;;;10.75;2.85;;;;;;;;;;5035220;28;20103;-56
2022/01/01 07:06:34;;;;;;;10.00;3.70;;;;;;;;;;5035177;28;20025;-58
2022/01/01 07:09:00;;;;;;;10.18;2.90;;;;;;;;;;5034889;28;20068;-58
2022/01/01 07:11:26;;;;;;;10.10;2.83;;;;;;;;;;5035201;28;20397;-61
2022/01/01 07:13:52;;;;;;;9.25;2.78;;;;;;;;;;5035069;28;20029;-60
2022/01/01 07:16:17;;;;;;;9.68;2.80;;;;;;;;;;5034768;28;20026;-58
2022/01/01 07:18:43;;;;;;;11.68;3.00;;;;;;;;;;5035194;28;20023;-58
2022/01/01 07:21:08;;;;;;;7.93;2.72;;;;;;;;;;5034070;28;20491;-58
2022/01/01 07:23:34;;;;;;;9.20;2.67;;;;;;;;;;5034766;28;20060;-56
2022/01/01 07:25:59;;;;;;;7.63;2.35;;;;;;;;;;5034765;28;20026;-58
2022/01/01 07:28:25;;;;;;;8.95;2.42;;;;;;;;;;5034825;28;20025;-56
2022/01/01 07:30:50;;;;;;;8.52;2.67;;;;;;;;;;5034416;28;20370;-58
2022/01/01 07:33:16;;;;;;;9.35;3.05;;;;;;;;;;5034615;28;20063;-65
2022/01/01 07:35:42;;;;;;;15.40;4.35;;;;;;;;;;5034581;28;20051;-58
2022/01/01 07:38:08;;;;;;;11.70;3.67;;;;;;;;;;5034183;28;20026;-57
2022/01/01 07:40:34;;;;;;;10.38;2.88;;;;;;;;;;5034642;28;20112;-58
2022/01/01 07:43:13;;;;;;;8.55;2.65;;;;;;;;;;5034204;28;20030;-58
2022/01/01 07:45:39;;;;;;;5.18;2.30;;;;;;;;;;5034507;28;20376;-61
2022/01/01 07:48:05;;;;;;;5.78;2.50;;;;;;;;;;5034548;28;20028;-58
2022/01/01 07:50:31;;;;;;;6.75;2.63;;;;;;;;;;5034391;28;20491;-62
2022/01/01 07:52:56;;;;;;;7.95;2.60;;;;;;;;;;5034275;28;20037;-58
2022/01/01 07:55:21;;;;;;;10.88;3.47;;;;;;;;;;5034419;28;20088;-57
2022/01/01 07:57:47;;;;;;;11.80;4.25;;;;;;;;;;5034198;28;20025;-61
2022/01/01 08:00:13;;;;;;;10.25;3.38;;;;;;;;;;5034262;28;20107;-66
2022/01/01 08:02:40;;;;;;;10.45;3.45;;;;;;;;;;5034145;28;20033;-61
2022/01/01 08:05:06;;;;;;;6.13;2.70;;;;;;;;;;5034244;28;20025;-62
2022/01/01 08:07:31;;;;;;;8.90;3.72;;;;;;;;;;5033969;28;20372;-65
2022/01/01 08:09:57;;;;;;;11.27;2.42;;;;;;;;;;5034108;28;20021;-65
2022/01/01 08:12:22;;;;;;;8.43;3.08;;;;;;;;;;5033835;28;20027;-66
2022/01/01 08:14:48;;;;;;;12.48;2.80;;;;;;;;;;5034105;28;20357;-66
2022/01/01 08:17:13;;;;;;;9.55;2.55;;;;;;;;;;5033828;28;20082;-65
2022/01/01 08:19:39;;;;;;;11.70;3.00;;;;;;;;;;5033899;28;20539;-66
2022/01/01 08:22:04;;;;;;;8.45;2.70;;;;;;;;;;5033883;28;20480;-65
2022/01/01 08:24:30;;;;;;;8.77;2.95;;;;;;;;;;5033904;28;20029;-65
2022/01/01 08:26:56;;;;;;;6.60;2.28;;;;;;;;;;5033191;28;20052;-66
2022/01/01 08:29:21;;;;;;;6.72;2.40;;;;;;;;;;5033504;28;20028;-66
2022/01/01 08:31:46;;;;;;;7.15;2.53;;;;;;;;;;5033117;28;20484;-65
2022/01/01 08:34:12;;;;;;;9.30;2.50;;;;;;;;;;5033632;28;20636;-65
2022/01/01 08:36:37;;;;;;;9.73;2.60;;;;;;;;;;5033488;28;20033;-65
2022/01/01 08:39:06;;;;;;;5.18;1.92;;;;;;;;;;5033686;28;20109;-66
2022/01/01 08:41:32;;;;;;;7.40;2.25;;;;;;;;;;5033127;28;20103;-65
2022/01/01 08:43:57;;;;;;;7.05;2.78;;;;;;;;;;5033376;28;20465;-65
2022/01/01 08:46:23;;;;;;;11.48;2.80;;;;;;;;;;5033343;28;20048;-64
2022/01/01 08:48:48;;;;;;;10.90;2.90;;;;;;;;;;5033363;28;20483;-65
2022/01/01 08:51:19;;;;;;;12.32;2.47;;;;;;;;;;5033134;28;20392;-65
2022/01/01 08:53:46;;;;;;;12.02;2.95;;;;;;;;;;5033062;28;20049;-65
2022/01/01 08:56:11;;;;;;;7.10;2.00;;;;;;;;;;5032868;28;20029;-63
2022/01/01 08:58:37;;;;;;;8.43;2.53;;;;;;;;;;5033004;28;20068;-63
2022/01/01 09:01:03;;;;;;;10.23;2.50;;;;;;;;;;5015239;28;20053;-65
2022/01/01 09:03:29;;;;;;;10.73;3.17;;;;;;;;;;5032835;28;20400;-65
2022/01/01 09:05:55;;;;;;;7.93;2.30;;;;;;;;;;5032868;28;20044;-65
2022/01/01 09:08:20;;;;;;;7.35;2.22;;;;;;;;;;5032965;28;20017;-64
2022/01/01 09:10:46;;;;;;;9.68;2.20;;;;;;;;;;5032362;28;20500;-66
2022/01/01 09:13:11;;;;;;;9.50;2.50;;;;;;;;;;5032706;28;20075;-64
2022/01/01 09:15:36;;;;;;;7.45;3.00;;;;;;;;;;5032501;28;20476;-66
2022/01/01 09:18:02;;;;;;;7.10;2.15;;;;;;;;;;5032791;28;20022;-66
2022/01/01 09:20:27;;;;;;;7.13;2.50;;;;;;;;;;5032628;28;20104;-66
2022/01/01 09:22:53;;;;;;;13.35;3.47;;;;;;;;;;5032429;28;20037;-66
2022/01/01 09:25:18;;;;;;;9.88;2.75;;;;;;;;;;5032606;28;20033;-65
2022/01/01 09:27:44;;;;;;;11.27;3.45;;;;;;;;;;5032627;28;20017;-65
2022/01/01 09:30:10;;;;;;;11.77;2.80;;;;;;;;;;5032554;28;20546;-65
2022/01/01 09:32:36;;;;;;;14.25;3.40;;;;;;;;;;5014675;28;20464;-57
2022/01/01 09:35:02;;;;;;;10.20;3.63;;;;;;;;;;5032437;28;20388;-58
2022/01/01 09:37:29;;;;;;;9.05;3.17;;;;;;;;;;5032458;28;20461;-58
2022/01/01 09:39:56;;;;;;;15.18;4.90;;;;;;;;;;5032065;28;20037;-58
2022/01/01 09:42:22;;;;;;;10.30;3.72;;;;;;;;;;5032462;28;20092;-58
2022/01/01 09:44:48;;;;;;;15.07;3.80;;;;;;;;;;5032199;28;20022;-58
2022/01/01 09:47:14;;;;;;;10.20;3.80;;;;;;;;;;5032184;28;20476;-55
2022/01/01 09:49:41;;;;;;;10.50;4.35;;;;;;;;;;5032372;28;20112;-63
2022/01/01 09:52:06;;;;;;;13.60;4.05;;;;;;;;;;5032322;28;20029;-58
2022/01/01 09:54:32;;;;;;;18.45;3.97;;;;;;;;;;5032165;28;20389;-59
2022/01/01 09:56:57;;;;;;;12.52;4.30;;;;;;;;;;5032184;28;20021;-56
2022/01/01 09:59:23;;;;;;;7.63;3.70;;;;;;;;;;5032405;28;20033;-58
2022/01/01 10:01:48;;;;;;;8.73;4.00;;;;;;;;;;5031951;28;20026;-59
2022/01/01 10:04:15;;;;;;;14.95;4.10;;;;;;;;;;5032240;28;20032;-59
2022/01/01 10:06:42;;;;;;;9.20;4.32;;;;;;;;;;5032129;28;20025;-65
2022/01/01 10:09:09;;;;;;;9.98;3.47;;;;;;;;;;5031812;28;20025;-60
2022/01/01 10:11:35;;;;;;;15.95;5.20;;;;;;;;;;5031987;28;20476;-56
2022/01/01 10:14:05;;;;;;;10.88;3.30;;;;;;;;;;5032213;28;20036;-57
2022/01/01 10:16:31;;;;;;;15.82;5.10;;;;;;;;;;5032178;28;20430;-56
2022/01/01 10:18:57;;;;;;;12.68;4.38;;;;;;;;;;5032170;28;20033;-64
2022/01/01 10:21:28;;;;;;;7.75;3.20;;;;;;;;;;5031784;28;20017;-65
2022/01/01 10:23:56;;;;;;;9.52;3.13;;;;;;;;;;5031954;28;20366;-64
2022/01/01 10:29:16;;;;;;;15.98;3.55;;;;;;;;;;5032419;28;20036;-63
2022/01/01 10:31:59;;;;;;;10.43;3.22;;;;;;;;;;5031785;28;20084;-63
2022/01/01 10:34:30;;;;;;;10.73;2.95;;;;;;;;;;5031689;28;20018;-66
2022/01/01 10:36:56;;;;;;;9.05;3.17;;;;;;;;;;5032098;28;20079;-59
2022/01/01 10:39:22;;;;;;;21.00;4.07;;;;;;;;;;5031603;28;20021;-65
2022/01/01 10:41:55;;;;;;;10.65;3.75;;;;;;;;;;5031944;28;20564;-60
2022/01/01 10:44:21;;;;;;;13.35;3.47;;;;;;;;;;5031844;28;20025;-66
2022/01/01 10:46:47;;;;;;;12.93;3.88;;;;;;;;;;5031781;28;20071;-65
2022/01/01 10:52:16;;;;;;;;;;;;;;;;;;5017824;28;20041;-65
2022/01/01 10:55:01;;;;;;;14.07;4.05;;;;;;;;;;5031844;28;20002;-63
2022/01/01 10:57:27;;;;;;;17.42;3.90;;;;;;;;;;5033797;28;20407;-64
2022/01/01 11:00:04;;;;;;;12.82;3.85;;;;;;;;;;5035534;28;20040;-62
2022/01/01 11:02:33;;;;;;;15.80;3.83;;;;;;;;;;5035510;28;20496;-65
2022/01/01 11:04:58;;;;;;;14.82;3.75;;;;;;;;;;5034902;28;20025;-65
2022/01/01 11:07:27;;;;;;;13.95;3.63;;;;;;;;;;5034662;28;20072;-65
2022/01/01 11:09:55;;;;;;;11.40;3.90;;;;;;;;;;5035113;28;20037;-62
2022/01/01 11:12:22;;;;;;;13.80;3.65;;;;;;;;;;5017289;28;20041;-67
2022/01/01 11:14:48;;;;;;;15.48;3.78;;;;;;;;;;5035218;28;20472;-64
2022/01/01 11:17:15;;;;;;;9.00;3.33;;;;;;;;;;5035048;28;20025;-59
2022/01/01 11:19:42;;;;;;;12.23;3.90;;;;;;;;;;5034836;28;20025;-65
2022/01/01 11:22:09;;;;;;;14.50;4.90;;;;;;;;;;5034638;28;20042;-63
2022/01/01 11:24:38;;;;;;;19.55;4.70;;;;;;;;;;5034943;28;20515;-61
2022/01/01 11:27:05;;;;;;;16.10;4.18;;;;;;;;;;5035111;28;20117;-64
2022/01/01 11:29:31;;;;;;;14.73;4.20;;;;;;;;;;5034738;28;20049;-61
2022/01/01 11:31:58;;;;;;;12.85;3.80;;;;;;;;;;5034548;28;20049;-64
2022/01/01 11:34:24;;;;;;;16.33;4.53;;;;;;;;;;5034649;28;20030;-59
2022/01/01 11:36:50;;;;;;;16.98;4.53;;;;;;;;;;5034550;28;20076;-62
2022/01/01 11:39:20;;;;;;;12.02;4.30;;;;;;;;;;5034476;28;20030;-63
2022/01/01 11:41:45;;;;;;;9.50;3.77;;;;;;;;;;5034653;28;20029;-60
2022/01/01 11:44:31;;;;;;;16.92;4.95;;;;;;;;;;5034401;28;20533;-63
2022/01/01 11:47:03;;;;;;;13.65;4.30;;;;;;;;;;5034527;28;20088;-65
2022/01/01 11:49:31;;;;;;;14.90;4.10;;;;;;;;;;5034303;28;20026;-66
2022/01/01 11:51:58;;;;;;;14.93;4.70;;;;;;;;;;5034228;28;20488;-65
2022/01/01 11:54:26;;;;;;;11.23;3.72;;;;;;;;;;5034352;28;20030;-59
2022/01/01 11:56:58;;;;;;;17.67;4.95;;;;;;;;;;5034508;28;20314;-65
2022/01/01 11:59:26;;;;;;;16.88;4.13;;;;;;;;;;5034216;28;20029;-57
2022/01/01 12:01:56;;;;;;;18.92;4.88;;;;;;;;;;5033849;28;20076;-64
2022/01/01 12:04:42;;;;;;;17.97;4.90;;;;;;;;;;5033582;28;20025;-62
2022/01/01 12:07:20;;;;;;;14.15;4.55;;;;;;;;;;5033611;28;20033;-60
2022/01/01 12:09:54;;;;;;;19.52;5.38;;;;;;;;;;5033929;28;20076;-60
2022/01/01 12:12:50;;;;;;;14.23;5.18;;;;;;;;;;5033989;28;20553;-60
2022/01/01 12:15:25;;;;;;;16.17;4.78;;;;;;;;;;5033972;28;20034;-58
2022/01/01 12:17:56;;;;;;;15.18;5.60;;;;;;;;;;5033787;28;20029;-66
2022/01/01 12:20:57;;;;;;;14.85;5.80;;;;;;;;;;5033571;28;20465;-61
2022/01/01 12:23:24;;;;;;;14.30;5.25;;;;;;;;;;5033373;28;20148;-59
2022/01/01 12:25:52;;;;;;;17.17;5.60;;;;;;;;;;5033867;28;20033;-60
2022/01/01 12:28:23;;;;;;;18.63;6.10;;;;;;;;;;5033539;28;20094;-65
2022/01/01 12:30:51;;;;;;;12.32;4.60;;;;;;;;;;5033451;28;20080;-66
2022/01/01 12:33:44;;;;;;;19.38;5.75;;;;;;;;;;5032981;28;20393;-61
2022/01/01 12:36:21;;;;;;;16.55;5.18;;;;;;;;;;5033428;28;20560;-57
2022/01/01 12:38:53;;;;;;;22.48;6.43;;;;;;;;;;5033718;28;20036;-59
2022/01/01 12:41:32;;;;;;;25.50;9.50;;;;;;;;;;5033372;28;20082;-59
2022/01/01 12:44:10;;;;;;;26.50;7.47;;;;;;;;;;5033348;28;20449;-58
2022/01/01 12:46:39;;;;;;;19.48;7.80;;;;;;;;;;5033591;28;20099;-57
2022/01/01 12:49:07;;;;;;;19.23;5.85;;;;;;;;;;5032801;28;20021;-60
2022/01/01 12:51:37;;;;;;;18.70;6.70;;;;;;;;;;5023396;28;20053;-66
2022/01/01 12:54:05;;;;;;;19.33;7.90;;;;;;;;;;5033089;28;20017;-59
2022/01/01 12:56:32;;;;;;;16.17;5.78;;;;;;;;;;5032906;28;20029;-60
2022/01/01 12:59:00;;;;;;;18.92;6.57;;;;;;;;;;5033004;28;20032;-59
2022/01/01 13:01:27;;;;;;;18.67;6.32;;;;;;;;;;5033115;28;20021;-61
2022/01/01 13:04:00;;;;;;;20.10;6.72;;;;;;;;;;5032677;28;20018;-60
2022/01/01 13:06:25;;;;;;;20.45;6.43;;;;;;;;;;5033048;28;20037;-58
2022/01/01 13:08:52;;;;;;;18.95;7.15;;;;;;;;;;5032710;28;20423;-64
2022/01/01 13:11:18;;;;;;;19.13;6.55;;;;;;;;;;5032902;28;20112;-60
2022/01/01 13:13:44;;;;;;;20.33;6.70;;;;;;;;;;5032895;28;20417;-59
2022/01/01 13:16:10;;;;;;;19.80;7.45;;;;;;;;;;5033136;28;20044;-63
2022/01/01 13:18:36;;;;;;;21.83;8.55;;;;;;;;;;5031766;28;20048;-62
2022/01/01 13:21:01;;;;;;;19.88;7.13;;;;;;;;;;5033038;28;20358;-61
2022/01/01 13:23:28;;;;;;;20.52;7.40;;;;;;;;;;5032616;28;20032;-62
2022/01/01 13:25:54;;;;;;;25.15;8.80;;;;;;;;;;5032825;28;20071;-59
2022/01/01 13:28:24;;;;;;;23.20;8.13;;;;;;;;;;5032638;28;20033;-59
2022/01/01 13:30:52;;;;;;;22.58;9.65;;;;;;;;;;5014731;28;20436;-59
2022/01/01 13:33:18;;;;;;;26.70;10.90;;;;;;;;;;5031909;28;20466;-59
2022/01/01 13:35:51;;;;;;;28.90;11.30;;;;;;;;;;5032721;28;20025;-58
2022/01/01 13:38:18;;;;;;;21.30;8.82;;;;;;;;;;5032266;28;20104;-60
2022/01/01 13:40:48;;;;;;;25.17;10.18;;;;;;;;;;5032247;28;20388;-59
2022/01/01 13:43:14;;;;;;;19.20;9.82;;;;;;;;;;5032354;28;20487;-57
2022/01/01 13:45:40;;;;;;;22.98;10.35;;;;;;;;;;5032072;28;20030;-61
2022/01/01 13:48:08;;;;;;;31.00;13.05;;;;;;;;;;5032398;28;20021;-58
2022/01/01 13:50:44;;;;;;;24.42;9.93;;;;;;;;;;5032472;28;20029;-59
2022/01/01 13:53:11;;;;;;;25.48;9.73;;;;;;;;;;5032638;28;20542;-65
2022/01/01 13:55:49;;;;;;;24.40;9.80;;;;;;;;;;5032524;28;20033;-65
2022/01/01 13:58:15;;;;;;;23.83;8.70;;;;;;;;;;5032443;28;20464;-64
2022/01/01 14:00:50;;;;;;;30.27;9.38;;;;;;;;;;5031698;28;20034;-66
2022/01/01 14:03:15;;;;;;;25.63;9.85;;;;;;;;;;5032181;28;20116;-62
2022/01/01 14:05:42;;;;;;;23.67;10.23;;;;;;;;;;5032326;28;20103;-65
2022/01/01 14:08:12;;;;;;;30.00;10.55;;;;;;;;;;4997914;28;20376;-67
2022/01/01 14:10:38;;;;;;;25.70;10.60;;;;;;;;;;5032126;28;20025;-66
2022/01/01 14:13:03;;;;;;;30.55;11.15;;;;;;;;;;5032274;28;20040;-66
2022/01/01 14:15:29;;;;;;;27.83;11.65;;;;;;;;;;5031856;28;20067;-66
2022/01/01 14:18:03;;;;;;;23.77;10.77;;;;;;;;;;5032123;28;20029;-66
2022/01/01 14:20:30;;;;;;;25.08;8.90;;;;;;;;;;5031988;28;20026;-66
2022/01/01 14:22:56;;;;;;;24.27;11.15;;;;;;;;;;5032144;28;20037;-66
2022/01/01 14:25:25;;;;;;;27.75;9.98;;;;;;;;;;5032000;28;20547;-66
2022/01/01 14:27:51;;;;;;;31.27;12.77;;;;;;;;;;5032202;28;20021;-64
2022/01/01 14:30:17;;;;;;;28.73;13.43;;;;;;;;;;5032744;28;20041;-66
2022/01/01 14:32:45;;;;;;;28.77;13.93;;;;;;;;;;5035950;28;20063;-65
2022/01/01 14:35:11;;;;;;;29.55;12.82;;;;;;;;;;5035645;28;20074;-66
2022/01/01 14:37:37;;;;;;;33.45;14.38;;;;;;;;;;5035904;28;20025;-65
2022/01/01 14:40:03;;;;;;;32.95;13.50;;;;;;;;;;5035724;28;20340;-63
2022/01/01 14:42:28;;;;;;;31.92;12.00;;;;;;;;;;5035888;28;20188;-66
2022/01/01 14:44:54;;;;;;;27.38;10.15;;;;;;;;;;5035111;28;20021;-66